Time;durP1;ratioP1;P1;durP2;ratioP2;P2;SDS_P1;SDS_P2;PMS_P1;PMS_P2;Temp;Humidity;BMP_temperature;BMP_pressure;BME280_temperature;BME280_humidity;BME280_pressure;Samples;Min_cycle;Max_cycle;Signal;HPM_P1;HPM_P2
2021/10/10 00:00:52;;;;;;;18.02;9.80;;;;;;;25.83;43.56;102000.31;4440197;32;20045;-70
2021/10/10 00:03:18;;;;;;;16.55;9.02;;;;;;;25.94;43.40;102012.72;4439175;32;20037;-69
2021/10/10 00:05:45;;;;;;;15.88;8.75;;;;;;;25.73;43.72;102010.47;4442290;32;20091;-68
2021/10/10 00:08:11;;;;;;;12.77;7.43;;;;;;;25.60;43.99;101998.56;4441935;32;20097;-69
2021/10/10 00:10:37;;;;;;;12.48;7.28;;;;;;;25.85;43.34;102006.34;4438976;32;20517;-69
2021/10/10 00:13:03;;;;;;;10.70;6.50;;;;;;;25.69;43.79;102004.16;4437551;32;20073;-69
2021/10/10 00:15:29;;;;;;;8.00;5.25;;;;;;;25.77;43.39;102002.38;4440308;32;20060;-69
2021/10/10 00:17:55;;;;;;;10.68;6.20;;;;;;;25.84;43.48;102010.56;4439678;32;20520;-69
2021/10/10 00:20:20;;;;;;;7.00;3.92;;;;;;;25.94;43.04;101998.28;4440239;32;20060;-69
2021/10/10 00:22:46;;;;;;;8.00;4.05;;;;;;;25.93;42.99;101998.81;4438541;32;20092;-69
2021/10/10 00:25:12;;;;;;;6.62;4.28;;;;;;;26.07;42.65;101997.84;4438220;32;20050;-69
2021/10/10 00:27:39;;;;;;;5.93;3.95;;;;;;;26.17;42.50;102008.66;4438369;32;20025;-69
2021/10/10 00:30:07;;;;;;;7.10;4.12;;;;;;;26.37;42.14;102013.47;4442392;32;20399;-69
2021/10/10 00:32:33;;;;;;;7.22;4.10;;;;;;;26.37;42.10;102010.59;4437896;32;20120;-69
2021/10/10 00:35:00;;;;;;;5.97;4.03;;;;;;;26.12;42.61;102014.41;4441426;32;20033;-68
2021/10/10 00:37:26;;;;;;;8.57;4.47;;;;;;;26.16;42.44;102012.87;4440697;32;20033;-69
2021/10/10 00:39:53;;;;;;;7.82;3.60;;;;;;;26.45;41.90;102006.69;4439432;32;20070;-69
2021/10/10 00:42:19;;;;;;;5.70;3.00;;;;;;;26.49;41.54;102004.34;4441281;32;20097;-69
2021/10/10 00:44:47;;;;;;;7.12;5.10;;;;;;;26.40;41.62;101998.81;4437457;32;20141;-69
2021/10/10 00:47:14;;;;;;;2.47;1.50;;;;;;;26.51;41.54;101998.06;4440258;32;20106;-70
2021/10/10 00:49:40;;;;;;;2.35;1.50;;;;;;;26.28;41.59;102010.81;4430281;32;20096;-69
2021/10/10 00:52:10;;;;;;;1.92;1.50;;;;;;;26.53;41.32;102004.09;4440532;32;20056;-69
2021/10/10 00:54:39;;;;;;;1.80;1.25;;;;;;;26.66;41.08;101998.66;4428333;32;20108;-69
2021/10/10 00:57:06;;;;;;;1.77;1.30;;;;;;;26.53;41.28;102007.75;4438661;32;20076;-68
2021/10/10 00:59:36;;;;;;;2.45;1.30;;;;;;;26.35;41.30;102013.22;4438794;32;20039;-69
2021/10/10 01:02:02;;;;;;;3.30;0.82;;;;;;;26.40;41.29;102007.47;4440972;32;20069;-69
2021/10/10 01:04:28;;;;;;;2.33;0.68;;;;;;;26.18;41.86;102006.56;4441358;32;20032;-69
2021/10/10 01:06:54;;;;;;;1.40;0.70;;;;;;;25.85;42.13;102006.34;4441201;32;20552;-69
2021/10/10 01:09:21;;;;;;;1.30;0.40;;;;;;;25.70;42.22;102014.38;4439270;32;20086;-69
2021/10/10 01:11:46;;;;;;;0.95;0.30;;;;;;;25.90;42.27;102005.59;4440425;32;20091;-69
2021/10/10 01:14:13;;;;;;;1.27;0.40;;;;;;;25.76;42.48;102009.44;4438129;32;20038;-69
2021/10/10 01:16:39;;;;;;;0.65;0.50;;;;;;;25.60;42.85;102013.78;4439357;32;20504;-69
2021/10/10 01:19:07;;;;;;;0.60;0.40;;;;;;;25.77;42.78;102008.16;4440429;32;20068;-69
2021/10/10 01:21:33;;;;;;;0.82;0.50;;;;;;;25.58;43.20;102012.75;4439282;32;20078;-69
2021/10/10 01:24:00;;;;;;;1.45;0.40;;;;;;;25.66;42.99;102008.06;4437873;32;20068;-69
2021/10/10 01:26:26;;;;;;;1.12;0.70;;;;;;;25.73;42.94;102011.25;4440673;32;20088;-69
2021/10/10 01:28:52;;;;;;;0.95;0.70;;;;;;;25.83;42.87;102009.75;4442933;32;20045;-69
2021/10/10 01:31:18;;;;;;;1.02;0.85;;;;;;;25.96;42.72;102013.00;4439936;32;20071;-69
2021/10/10 01:33:45;;;;;;;0.90;0.60;;;;;;;25.89;42.79;102012.69;4440148;32;20065;-69
2021/10/10 01:36:12;;;;;;;0.98;0.68;;;;;;;26.00;42.69;102004.91;4441914;32;20085;-69
2021/10/10 01:38:40;;;;;;;1.02;0.75;;;;;;;26.08;42.58;102011.75;4440319;32;20052;-69
2021/10/10 01:41:09;;;;;;;2.75;0.73;;;;;;;26.21;42.21;102009.22;4426507;32;20055;-69
2021/10/10 01:43:37;;;;;;;1.25;0.70;;;;;;;26.12;42.38;102008.63;4439614;32;20433;-69
2021/10/10 01:46:03;;;;;;;1.55;0.50;;;;;;;26.10;42.42;102002.59;4438087;32;20079;-71
2021/10/10 01:48:33;;;;;;;1.17;0.60;;;;;;;26.01;42.58;101999.94;4440851;32;20088;-69
2021/10/10 01:51:00;;;;;;;1.05;0.50;;;;;;;26.26;42.09;101993.25;4440338;32;20086;-69
2021/10/10 01:53:26;;;;;;;3.65;0.62;;;;;;;26.24;41.95;101987.19;4440675;32;20093;-69
2021/10/10 01:55:51;;;;;;;0.90;0.68;;;;;;;26.29;41.89;102001.62;4437815;32;20565;-69
2021/10/10 01:58:17;;;;;;;1.05;0.60;;;;;;;26.26;41.70;101994.00;4439087;32;20701;-69
2021/10/10 02:00:42;;;;;;;1.12;0.82;;;;;;;26.24;41.89;101990.88;4440801;32;20059;-69
2021/10/10 02:03:08;;;;;;;0.75;0.50;;;;;;;26.20;41.51;101987.44;4436978;32;20033;-69
2021/10/10 02:05:34;;;;;;;1.23;0.70;;;;;;;26.10;41.45;101986.06;4424071;32;20168;-69
2021/10/10 02:07:59;;;;;;;1.02;0.60;;;;;;;26.19;41.63;101987.94;4423202;32;20046;-69
2021/10/10 02:10:25;;;;;;;0.85;0.52;;;;;;;26.23;41.75;101988.50;4425012;32;20037;-69
2021/10/10 02:12:51;;;;;;;0.85;0.55;;;;;;;25.98;41.89;101986.56;4424924;32;20483;-69
2021/10/10 02:15:17;;;;;;;0.68;0.50;;;;;;;25.94;42.14;101988.84;4422596;32;20077;-69
2021/10/10 02:17:42;;;;;;;1.00;0.57;;;;;;;26.28;41.58;101984.84;4422362;32;20076;-69
2021/10/10 02:20:09;;;;;;;1.58;0.60;;;;;;;26.30;41.38;101993.78;4422506;32;20370;-69
2021/10/10 02:22:35;;;;;;;1.20;0.55;;;;;;;26.44;41.20;101990.69;4422870;32;20116;-69
2021/10/10 02:25:01;;;;;;;0.60;0.55;;;;;;;26.30;41.40;102000.34;4423208;32;20156;-69
2021/10/10 02:27:27;;;;;;;0.57;0.50;;;;;;;26.39;41.28;102005.91;4422397;32;20033;-69
2021/10/10 02:29:53;;;;;;;0.88;0.60;;;;;;;26.39;41.27;102002.22;4427840;32;20532;-69
2021/10/10 02:32:18;;;;;;;0.52;0.50;;;;;;;26.29;41.30;102001.62;4425114;32;20038;-69
2021/10/10 02:34:45;;;;;;;1.35;0.60;;;;;;;26.33;41.25;102002.19;4423367;32;20069;-69
2021/10/10 02:37:11;;;;;;;2.60;0.60;;;;;;;26.31;41.25;102004.81;4425131;32;20085;-69
2021/10/10 02:39:37;;;;;;;1.20;0.62;;;;;;;26.32;41.07;101999.81;4422519;32;20064;-69
2021/10/10 02:42:03;;;;;;;0.60;0.50;;;;;;;26.27;41.32;101992.72;4421302;32;20395;-69
2021/10/10 02:44:30;;;;;;;1.00;0.50;;;;;;;26.28;41.31;101988.53;4423331;32;20081;-69
2021/10/10 02:46:56;;;;;;;0.80;0.68;;;;;;;26.44;40.94;102002.22;4424993;32;20051;-69
2021/10/10 02:49:21;;;;;;;1.37;0.95;;;;;;;26.39;40.97;101990.66;4426313;32;20627;-69
2021/10/10 02:51:47;;;;;;;0.73;0.60;;;;;;;26.34;41.09;101988.53;4423827;32;20334;-69
2021/10/10 02:54:13;;;;;;;1.92;0.75;;;;;;;26.49;40.99;101987.03;4428581;32;20401;-69
2021/10/10 02:56:39;;;;;;;1.62;0.62;;;;;;;26.43;40.96;101983.34;4427046;32;20085;-69
2021/10/10 02:59:05;;;;;;;0.95;0.50;;;;;;;26.18;41.30;101984.28;4424046;32;20030;-69
2021/10/10 03:01:31;;;;;;;1.50;0.77;;;;;;;26.01;41.55;101985.53;4426089;32;20069;-69
2021/10/10 03:03:57;;;;;;;1.50;0.80;;;;;;;26.07;41.30;101980.53;4427799;32;20049;-69
2021/10/10 03:06:23;;;;;;;1.75;0.70;;;;;;;25.96;41.38;101978.38;4440616;32;20056;-69
2021/10/10 03:08:48;;;;;;;0.95;0.68;;;;;;;26.10;41.20;101982.37;4440649;32;20433;-69
2021/10/10 03:11:14;;;;;;;0.70;0.70;;;;;;;26.19;41.26;101977.19;4439043;32;20109;-69
2021/10/10 03:13:40;;;;;;;2.72;1.80;;;;;;;26.09;41.30;101977.94;4439802;32;20136;-69
2021/10/10 03:16:06;;;;;;;2.42;1.00;;;;;;;25.61;41.81;101980.00;4441838;32;20029;-69
2021/10/10 03:18:32;;;;;;;3.60;0.95;;;;;;;25.82;41.55;101978.53;4441927;32;20069;-69
2021/10/10 03:20:57;;;;;;;3.12;0.90;;;;;;;25.99;41.01;101977.38;4440575;32;21225;-69
2021/10/10 03:23:23;;;;;;;0.95;0.82;;;;;;;25.96;41.03;101983.34;4439288;32;20083;-69
2021/10/10 03:25:48;;;;;;;1.55;0.82;;;;;;;26.04;40.74;101976.59;4441820;32;20049;-69
2021/10/10 03:28:14;;;;;;;4.43;0.90;;;;;;;26.15;40.49;101978.75;4441621;32;20095;-69
2021/10/10 03:30:40;;;;;;;1.27;0.80;;;;;;;26.18;40.56;101971.94;4429950;32;20084;-69
2021/10/10 03:33:06;;;;;;;1.80;0.90;;;;;;;26.13;40.72;101969.81;4440365;32;20315;-69
2021/10/10 03:35:32;;;;;;;4.55;1.75;;;;;;;26.13;40.85;101976.37;4439603;32;20454;-69
2021/10/10 03:37:57;;;;;;;1.83;1.20;;;;;;;26.19;40.66;101977.19;4443909;32;20499;-69
2021/10/10 03:40:23;;;;;;;1.40;0.88;;;;;;;26.18;40.88;101969.06;4443083;32;20564;-69
2021/10/10 03:42:49;;;;;;;1.80;0.93;;;;;;;26.12;41.02;101968.25;4440528;32;20228;-69
2021/10/10 03:45:15;;;;;;;3.97;1.00;;;;;;;26.26;40.67;101964.38;4439274;32;20427;-69
2021/10/10 03:47:41;;;;;;;1.80;0.95;;;;;;;26.34;40.35;101960.47;4439953;32;20093;-69
2021/10/10 03:50:07;;;;;;;1.85;1.20;;;;;;;26.32;40.47;101956.53;4442573;32;20029;-69
2021/10/10 03:52:33;;;;;;;2.67;0.90;;;;;;;26.40;40.53;101961.28;4440341;32;20474;-69
2021/10/10 03:57:37;;;;;;;2.08;0.90;;;;;;;26.34;40.79;101977.00;3983697;32;15023477;-69
2021/10/10 04:00:07;;;;;;;3.72;1.00;;;;;;;26.34;40.79;101977.00;4438985;32;20429;-69
2021/10/10 04:02:34;;;;;;;1.75;0.93;;;;;;;26.09;41.33;101972.16;4431902;32;20038;-69
2021/10/10 04:05:01;;;;;;;2.62;0.93;;;;;;;25.58;41.46;101963.72;4439066;32;20099;-69
2021/10/10 04:07:29;;;;;;;0.57;0.50;;;;;;;25.60;40.55;101963.97;4433442;32;20037;-69
2021/10/10 04:09:54;;;;;;;1.15;0.70;;;;;;;25.17;40.94;101972.56;4436928;32;20452;-69
2021/10/10 04:12:20;;;;;;;1.58;0.50;;;;;;;25.23;40.77;101961.87;4439050;32;20029;-69
2021/10/10 04:14:46;;;;;;;0.98;0.77;;;;;;;25.03;41.05;101961.94;4435718;32;20039;-69
2021/10/10 04:17:12;;;;;;;3.30;0.73;;;;;;;24.73;41.72;101969.25;4437006;32;20416;-69
2021/10/10 04:19:38;;;;;;;5.22;0.70;;;;;;;24.79;41.52;101952.81;4438676;32;20037;-69
2021/10/10 04:22:04;;;;;;;2.60;0.70;;;;;;;24.59;41.51;101958.59;4435434;32;20366;-69
2021/10/10 04:24:30;;;;;;;1.42;0.55;;;;;;;24.33;41.79;101960.66;4437215;32;20192;-69
2021/10/10 04:26:56;;;;;;;0.80;0.60;;;;;;;24.34;41.78;101956.50;4438004;32;20087;-69
2021/10/10 04:29:21;;;;;;;2.22;0.60;;;;;;;24.11;41.97;101956.72;4431746;32;20069;-69
2021/10/10 04:31:47;;;;;;;1.23;0.55;;;;;;;24.09;41.81;101954.38;4438686;32;20069;-69
2021/10/10 04:34:13;;;;;;;2.00;0.62;;;;;;;24.10;41.60;101953.06;4439325;32;20111;-69
2021/10/10 04:36:39;;;;;;;2.37;0.60;;;;;;;23.97;41.85;101957.59;4438001;32;20073;-69
2021/10/10 04:39:05;;;;;;;0.82;0.50;;;;;;;24.11;41.74;101954.63;4438057;32;20095;-69
2021/10/10 04:41:30;;;;;;;5.05;0.73;;;;;;;23.91;41.92;101951.72;4439053;32;20081;-69
2021/10/10 04:43:56;;;;;;;2.05;0.73;;;;;;;23.93;42.00;101956.97;4438459;32;20044;-69
2021/10/10 04:46:21;;;;;;;3.87;0.77;;;;;;;23.88;42.12;101960.56;4440153;32;20095;-69
2021/10/10 04:48:47;;;;;;;4.03;0.73;;;;;;;23.80;42.07;101965.19;4435568;32;20402;-69
2021/10/10 04:51:13;;;;;;;1.85;0.40;;;;;;;23.74;42.43;101965.06;4432615;32;20161;-69
2021/10/10 04:53:39;;;;;;;1.42;0.70;;;;;;;23.71;42.78;101982.56;4439653;32;20103;-69
2021/10/10 04:56:05;;;;;;;1.15;0.50;;;;;;;23.67;42.78;101982.75;4431953;32;20085;-69
2021/10/10 04:58:30;;;;;;;1.58;0.70;;;;;;;23.57;42.79;101989.13;4422471;32;20056;-69
2021/10/10 05:00:57;;;;;;;2.35;0.50;;;;;;;23.50;42.14;101993.97;4435673;32;20147;-69
2021/10/10 05:03:24;;;;;;;1.92;0.50;;;;;;;23.32;42.10;102004.94;4439366;32;20029;-69
2021/10/10 05:05:50;;;;;;;2.15;0.47;;;;;;;23.22;42.07;102003.41;4437501;32;20398;-69
2021/10/10 05:08:19;;;;;;;2.53;0.70;;;;;;;23.30;41.99;102016.91;4430310;32;20344;-69
2021/10/10 05:10:45;;;;;;;1.50;0.70;;;;;;;22.81;43.10;102013.09;4424857;32;20092;-69
2021/10/10 05:13:11;;;;;;;1.52;0.60;;;;;;;22.73;43.51;102043.50;4427389;32;20026;-69
2021/10/10 05:15:36;;;;;;;2.67;1.73;;;;;;;22.85;43.20;102051.81;4425277;32;20069;-69
2021/10/10 05:18:02;;;;;;;3.45;2.12;;;;;;;22.51;44.38;102043.03;4427021;32;20390;-69
2021/10/10 05:20:29;;;;;;;6.78;2.62;;;;;;;22.47;44.61;102042.41;4428377;32;20034;-69
2021/10/10 05:22:54;;;;;;;2.92;2.12;;;;;;;22.47;44.87;102046.06;4428054;32;20081;-69
2021/10/10 05:25:20;;;;;;;2.85;2.00;;;;;;;22.49;44.48;102054.19;4425209;32;20786;-69
2021/10/10 05:27:45;;;;;;;2.62;2.00;;;;;;;22.62;44.26;102031.78;4428793;32;20068;-69
2021/10/10 05:30:12;;;;;;;4.25;2.10;;;;;;;22.58;43.98;102036.94;4429878;32;20468;-69
2021/10/10 05:32:38;;;;;;;2.87;2.00;;;;;;;22.80;43.77;102029.53;4427584;32;20458;-69
2021/10/10 05:35:04;;;;;;;3.85;2.12;;;;;;;22.26;44.76;102034.91;4426827;32;21531;-69
2021/10/10 05:37:30;;;;;;;4.57;2.25;;;;;;;22.78;43.73;102026.37;4426791;32;20090;-69
2021/10/10 05:39:56;;;;;;;3.87;2.58;;;;;;;22.79;43.67;102030.00;4425561;32;20374;-69
2021/10/10 05:42:21;;;;;;;3.58;2.10;;;;;;;22.65;43.87;102034.47;4427440;32;20455;-69
2021/10/10 05:44:49;;;;;;;4.90;2.17;;;;;;;22.59;44.04;102038.50;4428423;32;20593;-69
2021/10/10 05:47:16;;;;;;;3.67;2.00;;;;;;;22.64;44.01;102041.47;4428751;32;20029;-69
2021/10/10 05:49:42;;;;;;;2.67;1.95;;;;;;;22.15;44.90;102031.81;4426646;32;20120;-69
2021/10/10 05:52:08;;;;;;;4.85;1.92;;;;;;;22.19;45.02;102041.81;4424674;32;20061;-69
2021/10/10 05:54:36;;;;;;;4.03;1.92;;;;;;;22.45;44.46;102037.16;4427452;32;20467;-69
2021/10/10 05:57:06;;;;;;;4.93;2.40;;;;;;;22.23;45.01;102039.53;4418351;32;20231;-69
2021/10/10 05:59:34;;;;;;;4.03;2.50;;;;;;;22.41;44.64;102041.47;4428378;32;20085;-69
2021/10/10 06:02:01;;;;;;;4.32;2.20;;;;;;;22.39;44.58;102044.03;4416810;32;20095;-69
2021/10/10 06:04:27;;;;;;;5.28;2.45;;;;;;;22.46;44.66;102037.94;4424205;32;20075;-69
2021/10/10 06:06:52;;;;;;;2.90;2.25;;;;;;;22.31;44.80;102035.03;4427225;32;20532;-69
2021/10/10 06:09:18;;;;;;;2.95;2.40;;;;;;;22.31;44.81;102037.09;4427472;32;20097;-69
2021/10/10 06:11:44;;;;;;;4.22;2.47;;;;;;;22.16;45.03;102039.91;4424558;32;20547;-69
2021/10/10 06:14:10;;;;;;;3.05;2.53;;;;;;;22.13;45.12;102038.03;4418515;32;20085;-69
2021/10/10 06:16:36;;;;;;;6.37;2.80;;;;;;;22.24;45.11;102044.00;4427195;32;20103;-69
2021/10/10 06:19:03;;;;;;;6.85;2.42;;;;;;;21.97;45.59;102038.44;4427923;32;20065;-69
2021/10/10 06:21:29;;;;;;;5.22;2.47;;;;;;;22.07;45.45;102039.97;4424962;32;20116;-69
2021/10/10 06:23:55;;;;;;;5.15;2.92;;;;;;;22.00;45.54;102043.19;4428282;32;20021;-69
2021/10/10 06:26:22;;;;;;;6.70;3.08;;;;;;;21.90;45.81;102046.63;4423996;32;20095;-69
2021/10/10 06:28:47;;;;;;;6.18;2.80;;;;;;;22.00;45.76;102051.00;4424390;32;20106;-69
2021/10/10 06:31:13;;;;;;;5.75;2.95;;;;;;;21.94;45.71;102052.94;4421455;32;20467;-69
2021/10/10 06:33:38;;;;;;;5.03;3.20;;;;;;;21.83;45.99;102055.53;4426507;32;20042;-69
2021/10/10 06:36:04;;;;;;;5.82;3.05;;;;;;;21.66;46.43;102067.37;4423542;32;20034;-69
2021/10/10 06:38:30;;;;;;;9.52;3.15;;;;;;;21.74;46.21;102062.12;4426540;32;20069;-69
2021/10/10 06:40:56;;;;;;;4.97;3.17;;;;;;;21.65;46.36;102059.25;4423477;32;20092;-69
2021/10/10 06:43:22;;;;;;;5.00;3.30;;;;;;;21.58;46.12;102056.75;4426504;32;20133;-69
2021/10/10 06:45:48;;;;;;;5.43;3.10;;;;;;;21.47;46.65;102060.13;4424234;32;20132;-69
2021/10/10 06:48:14;;;;;;;6.18;3.08;;;;;;;21.53;46.70;102066.78;4426382;32;20104;-69
2021/10/10 06:50:40;;;;;;;7.80;3.62;;;;;;;21.36;46.96;102071.28;4424911;32;20038;-69
2021/10/10 06:53:06;;;;;;;5.97;3.30;;;;;;;21.49;46.66;102076.84;4425851;32;20422;-69
2021/10/10 06:55:31;;;;;;;4.90;3.30;;;;;;;21.42;46.90;102077.97;4425358;32;20126;-69
2021/10/10 06:57:57;;;;;;;4.20;2.87;;;;;;;21.37;46.97;102077.81;4425028;32;20122;-69
2021/10/10 07:00:23;;;;;;;5.87;3.53;;;;;;;21.42;46.72;102092.28;4424518;32;20077;-69
2021/10/10 07:02:48;;;;;;;5.07;2.97;;;;;;;21.44;46.58;102089.75;4412238;32;20195;-69
2021/10/10 07:05:16;;;;;;;6.30;3.58;;;;;;;21.48;46.47;102087.50;4422930;32;20148;-69
2021/10/10 07:07:41;;;;;;;15.85;3.80;;;;;;;21.49;46.61;102088.28;4424507;32;20085;-69
2021/10/10 07:10:08;;;;;;;8.02;4.10;;;;;;;21.37;46.74;102092.94;4423526;32;20044;-69
2021/10/10 07:12:35;;;;;;;8.13;3.72;;;;;;;21.44;46.71;102092.59;4424435;32;20064;-69
2021/10/10 07:15:02;;;;;;;7.75;3.78;;;;;;;21.45;46.53;102097.03;4426192;32;20068;-69
2021/10/10 07:17:30;;;;;;;5.87;3.72;;;;;;;21.53;46.58;102097.50;4425780;32;20042;-69
2021/10/10 07:20:03;;;;;;;5.75;3.35;;;;;;;21.63;46.20;102090.50;4424296;32;20093;-69
2021/10/10 07:22:43;;;;;;;7.07;3.42;;;;;;;21.58;46.16;102091.94;4423546;32;20034;-69
2021/10/10 07:25:10;;;;;;;7.95;3.65;;;;;;;21.51;45.95;102095.13;4427162;32;20034;-69
2021/10/10 07:27:39;;;;;;;4.43;2.80;;;;;;;21.84;45.90;102103.78;4421270;32;20030;-69
2021/10/10 07:30:07;;;;;;;6.78;2.85;;;;;;;21.85;45.82;102101.72;4424270;32;20044;-69
2021/10/10 07:32:33;;;;;;;4.93;3.08;;;;;;;21.92;45.53;102107.09;4422540;32;20426;-69
2021/10/10 07:35:00;;;;;;;6.28;3.15;;;;;;;21.83;45.43;102099.34;4425283;32;20065;-69
2021/10/10 07:37:26;;;;;;;5.18;3.00;;;;;;;21.98;45.45;102116.62;4426242;32;20412;-69
2021/10/10 07:39:52;;;;;;;6.40;3.35;;;;;;;22.03;45.27;102118.84;4425051;32;20078;-69
2021/10/10 07:42:18;;;;;;;4.72;2.55;;;;;;;22.18;45.00;102117.63;4424482;32;20451;-69
2021/10/10 07:44:45;;;;;;;5.18;2.47;;;;;;;22.12;44.85;102115.94;4424709;32;20033;-69
2021/10/10 07:47:17;;;;;;;4.15;2.20;;;;;;;22.10;44.13;102115.63;4424692;32;20091;-69
2021/10/10 07:49:44;;;;;;;4.90;2.25;;;;;;;22.47;42.79;102126.41;4424805;32;20025;-69
2021/10/10 07:52:11;;;;;;;3.53;2.47;;;;;;;22.76;42.26;102119.97;4421728;32;20515;-69
2021/10/10 07:54:38;;;;;;;5.12;1.73;;;;;;;22.77;41.68;102133.84;4423924;32;20072;-69
2021/10/10 07:57:04;;;;;;;2.30;1.73;;;;;;;23.01;40.85;102131.72;4424647;32;20078;-69
2021/10/10 07:59:29;;;;;;;5.37;1.87;;;;;;;23.05;40.17;102123.75;4424804;32;20025;-69
2021/10/10 08:01:55;;;;;;;2.28;1.42;;;;;;;22.96;40.08;102135.31;4412632;32;20041;-69
2021/10/10 08:04:21;;;;;;;3.00;1.50;;;;;;;23.65;39.26;102129.03;4423083;32;20111;-69
2021/10/10 08:06:47;;;;;;;6.18;1.45;;;;;;;23.77;38.63;102139.44;4424175;32;20474;-69
2021/10/10 08:09:15;;;;;;;1.80;1.25;;;;;;;24.23;38.05;102134.72;4426294;32;20081;-69
2021/10/10 08:11:42;;;;;;;3.28;1.25;;;;;;;23.80;38.18;102132.69;4424404;32;20045;-69
2021/10/10 08:14:10;;;;;;;4.70;1.80;;;;;;;24.72;37.14;102140.44;4424257;32;20227;-69
2021/10/10 08:16:36;;;;;;;1.67;1.20;;;;;;;24.88;36.29;102144.81;4422663;32;20069;-69
2021/10/10 08:19:02;;;;;;;2.85;1.60;;;;;;;25.06;35.60;102151.06;4425808;32;20089;-69
2021/10/10 08:21:29;;;;;;;2.35;1.17;;;;;;;25.39;35.27;102150.66;4423594;32;20060;-70
2021/10/10 08:23:55;;;;;;;4.15;1.27;;;;;;;25.61;34.99;102150.88;4425230;32;20119;-69
2021/10/10 08:26:21;;;;;;;1.80;1.10;;;;;;;25.49;34.55;102154.97;4422722;32;20431;-69
2021/10/10 08:28:47;;;;;;;3.37;1.00;;;;;;;25.77;34.13;102153.13;4425498;32;20026;-69
2021/10/10 08:31:12;;;;;;;2.20;1.00;;;;;;;25.70;34.09;102159.34;4421920;32;20080;-69
2021/10/10 08:33:38;;;;;;;5.32;1.45;;;;;;;25.85;33.70;102165.78;4422898;32;20091;-70
2021/10/10 08:36:08;;;;;;;3.45;0.90;;;;;;;26.11;33.34;102157.88;4425009;32;20132;-70
2021/10/10 08:38:35;;;;;;;4.18;1.10;;;;;;;26.22;33.23;102155.09;4424808;32;20037;-69
2021/10/10 08:41:03;;;;;;;4.35;1.25;;;;;;;26.14;33.26;102159.75;4422827;32;20118;-69
2021/10/10 08:43:31;;;;;;;5.28;1.17;;;;;;;26.85;32.43;102158.66;4423325;32;20518;-69
2021/10/10 08:46:01;;;;;;;3.50;1.08;;;;;;;27.03;32.11;102155.31;4426186;32;20091;-69
2021/10/10 08:48:28;;;;;;;4.10;0.90;;;;;;;26.85;31.89;102165.19;4424580;32;20034;-69
2021/10/10 08:50:55;;;;;;;3.10;1.23;;;;;;;26.90;31.74;102170.22;4428379;32;20049;-69
2021/10/10 08:53:22;;;;;;;4.40;1.37;;;;;;;27.16;31.41;102176.63;4430320;32;20111;-69
2021/10/10 08:55:50;;;;;;;3.75;1.10;;;;;;;27.14;31.74;102172.66;4423916;32;20451;-69
2021/10/10 08:58:19;;;;;;;3.45;1.20;;;;;;;27.47;31.33;102181.47;4413462;32;20183;-69
2021/10/10 09:00:49;;;;;;;10.73;1.67;;;;;;;27.69;31.07;102178.63;4423119;32;20112;-69
2021/10/10 09:03:14;;;;;;;5.72;1.00;;;;;;;28.04;30.73;102176.03;4427571;32;20069;-69
2021/10/10 09:05:40;;;;;;;4.15;1.05;;;;;;;28.09;30.25;102177.34;4425451;32;20076;-69
2021/10/10 09:08:06;;;;;;;3.10;1.30;;;;;;;28.16;29.77;102177.59;4427854;32;20056;-69
2021/10/10 09:10:32;;;;;;;4.32;1.33;;;;;;;28.31;29.41;102172.31;4425324;32;20099;-69
2021/10/10 09:13:16;;;;;;;3.65;1.65;;;;;;;28.48;29.30;102184.72;4423982;32;20544;-69
2021/10/10 09:15:46;;;;;;;5.40;1.40;;;;;;;29.08;28.29;102188.72;4425407;32;20213;-69
2021/10/10 09:18:12;;;;;;;3.28;1.40;;;;;;;29.12;28.12;102188.47;4427837;32;20069;-69
2021/10/10 09:20:45;;;;;;;3.67;1.55;;;;;;;28.13;29.25;102183.66;4425433;32;20099;-69
2021/10/10 09:23:30;;;;;;;2.20;1.15;;;;;;;28.90;28.17;102184.31;4424458;32;20025;-69
2021/10/10 09:26:00;;;;;;;3.00;1.08;;;;;;;29.16;28.12;102183.97;4425489;32;20030;-69
2021/10/10 09:28:28;;;;;;;5.68;1.30;;;;;;;29.38;27.65;102186.72;4427949;32;20065;-69
2021/10/10 09:30:57;;;;;;;3.45;1.20;;;;;;;28.75;28.39;102183.81;4424973;32;20065;-69
2021/10/10 09:33:43;;;;;;;6.32;1.65;;;;;;;29.34;27.64;102186.25;4424420;32;20426;-69
2021/10/10 09:36:21;;;;;;;4.40;1.33;;;;;;;30.03;26.98;102190.50;4426657;32;20064;-69
2021/10/10 09:38:58;;;;;;;3.58;1.10;;;;;;;29.73;27.20;102197.62;4423209;32;20060;-69
2021/10/10 09:46:44;;;;;;;3.72;1.73;;;;;;;31.01;25.52;102201.69;3983111;32;15023831;-70
2021/10/10 09:54:56;;;;;;;4.30;1.77;;;;;;;31.93;24.07;102200.94;3963490;32;15025299;-70
2021/10/10 09:57:25;;;;;;;8.07;2.85;;;;;;;31.93;24.07;102200.94;4417454;32;20197;-69
2021/10/10 09:59:53;;;;;;;8.23;3.72;;;;;;;31.27;24.40;102212.72;4418021;32;20437;-69
2021/10/10 10:02:42;;;;;;;17.77;8.48;;;;;;;30.18;25.32;102204.62;4416366;32;20038;-69
2021/10/10 10:05:08;;;;;;;14.63;8.38;;;;;;;29.29;26.16;102197.88;4419466;32;20014;-68
2021/10/10 10:07:34;;;;;;;20.23;10.75;;;;;;;28.04;27.62;102189.72;4417172;32;20038;-69
2021/10/10 10:10:00;;;;;;;20.27;9.88;;;;;;;27.73;28.48;102184.16;4415061;32;20073;-69
2021/10/10 10:12:26;;;;;;;8.02;3.58;;;;;;;27.96;28.31;102188.66;4413757;32;20473;-70
2021/10/10 10:14:56;;;;;;;6.50;2.45;;;;;;;27.26;29.05;102179.31;4417322;32;20474;-69
2021/10/10 10:17:24;;;;;;;4.05;1.75;;;;;;;27.71;28.79;102172.31;4418254;32;20033;-69
2021/10/10 10:19:51;;;;;;;7.40;2.25;;;;;;;28.04;28.14;102181.03;4418781;32;20132;-69
2021/10/10 10:22:21;;;;;;;6.47;2.35;;;;;;;28.48;27.26;102187.59;4418847;32;20093;-69
2021/10/10 10:24:47;;;;;;;6.30;1.95;;;;;;;28.50;26.74;102189.97;4416654;32;20144;-69
2021/10/10 10:27:15;;;;;;;4.65;1.30;;;;;;;28.36;27.08;102179.41;4415848;32;20406;-69
2021/10/10 10:29:46;;;;;;;4.85;1.35;;;;;;;29.08;25.62;102191.62;4416659;32;21799;-69
2021/10/10 10:32:14;;;;;;;3.55;1.45;;;;;;;29.78;24.92;102194.69;4420610;32;20056;-69
2021/10/10 10:34:57;;;;;;;5.05;2.28;;;;;;;30.28;24.72;102194.31;4417752;32;20582;-69
2021/10/10 10:43:04;;;;;;;5.97;1.53;;;;;;;32.05;22.29;102210.28;3998541;31;15017138;-70
2021/10/10 10:45:33;;;;;;;4.35;1.67;;;;;;;32.05;22.29;102210.28;4453570;32;20118;-70
2021/10/10 10:48:01;;;;;;;5.37;2.25;;;;;;;31.05;23.17;102202.19;4455627;32;20071;-70
2021/10/10 10:50:34;;;;;;;7.80;1.80;;;;;;;30.52;23.85;102200.91;4457074;32;20111;-70
2021/10/10 10:53:04;;;;;;;5.30;1.70;;;;;;;30.11;24.41;102208.12;4456429;32;20041;-70
2021/10/10 10:55:37;;;;;;;4.60;1.40;;;;;;;29.54;24.91;102208.28;4454318;32;20092;-70
2021/10/10 11:05:57;;;;;;;6.75;1.45;;;;;;;31.04;23.45;102197.69;3981931;32;15025126;-70
2021/10/10 11:21:43;;;;;;;5.82;1.40;;;;;;;29.06;23.92;102193.50;3985272;32;15024194;-70
2021/10/10 11:24:22;;;;;;;5.93;1.20;;;;;;;29.06;23.92;102193.50;4435392;32;20064;-70
2021/10/10 11:26:51;;;;;;;7.93;3.00;;;;;;;29.50;23.68;102196.16;4433908;32;20149;-70
2021/10/10 11:29:19;;;;;;;4.15;1.70;;;;;;;29.77;23.70;102201.81;4435696;32;20030;-70
2021/10/10 11:31:47;;;;;;;6.45;1.50;;;;;;;29.51;23.82;102198.53;4435282;32;20486;-69
2021/10/10 11:34:17;;;;;;;7.35;1.70;;;;;;;28.83;24.29;102196.44;4433825;32;20041;-69
2021/10/10 11:36:59;;;;;;;3.95;1.92;;;;;;;29.84;22.88;102204.13;4438257;32;20084;-69
2021/10/10 11:39:27;;;;;;;4.32;1.37;;;;;;;30.38;22.37;102199.22;4434825;32;20042;-69
2021/10/10 11:41:56;;;;;;;3.95;1.50;;;;;;;31.27;21.76;102198.97;4435993;32;20021;-70
2021/10/10 11:44:24;;;;;;;2.40;0.90;;;;;;;31.00;21.82;102196.41;4436570;32;20071;-69
2021/10/10 11:54:42;;;;;;;4.22;1.30;;;;;;;29.96;21.71;102205.63;3983081;32;15023787;-70
2021/10/10 11:57:10;;;;;;;5.28;1.23;;;;;;;29.96;21.71;102205.63;4432558;32;20359;-70
2021/10/10 11:59:46;;;;;;;6.43;1.48;;;;;;;28.96;22.10;102185.06;4437482;32;20095;-70
2021/10/10 12:02:11;;;;;;;7.85;3.67;;;;;;;29.68;21.55;102201.34;4439256;32;20038;-70
2021/10/10 12:04:37;;;;;;;7.50;3.10;;;;;;;29.47;21.96;102189.31;4438679;32;20527;-70
2021/10/10 12:07:03;;;;;;;9.52;4.62;;;;;;;29.35;22.39;102187.00;4436290;32;20441;-70
2021/10/10 12:09:29;;;;;;;6.20;2.53;;;;;;;29.65;22.48;102194.50;4435163;32;20391;-70
2021/10/10 12:12:06;;;;;;;4.85;1.73;;;;;;;29.54;22.15;102196.69;4434097;32;20060;-70